Terminal Aerodrome Forecast
Issued by NWS

Home | Current Version | Previous Version | Text Only | Print | Product List | Glossary On
Versions: 1 2 3 4 5 6 7 8 9 10 11 12 13
000
FTUS45 KREV 022322
TAFMMH
TAF
KMMH 022322Z 0300/0324 12012KT P6SM VCTS SCT100CB BKN180
     FM030200 VRB03KT P6SM VCSH BKN120
     FM030500 VRB03KT P6SM BKN120
     FM031900 12008KT P6SM VCTS SCT100CB BKN150=

USA.gov is the U.S. government's official web portal to all federal, state and local government web resources and services.